Time;durP1;ratioP1;P1;durP2;ratioP2;P2;SDS_P1;SDS_P2;PMS_P1;PMS_P2;Temp;Humidity;BMP_temperature;BMP_pressure;BME280_temperature;BME280_humidity;BME280_pressure;Samples;Min_cycle;Max_cycle;Signal;HPM_P1;HPM_P2
2022/11/20 00:02:16;;;;;;;3.90;3.67;;;-3.90;97.30;;;;;;5053720;28;20209;-80
2022/11/20 00:04:41;;;;;;;2.77;2.57;;;-3.90;97.30;;;;;;5058052;28;20637;-79
2022/11/20 00:07:07;;;;;;;9.10;2.40;;;-4.00;97.30;;;;;;5081005;28;20199;-79
2022/11/20 00:09:32;;;;;;;5.63;4.43;;;-4.00;97.30;;;;;;5053999;28;20210;-76
2022/11/20 00:11:58;;;;;;;7.00;2.87;;;-4.00;97.30;;;;;;5081855;28;20182;-80
2022/11/20 00:14:23;;;;;;;2.37;2.17;;;-4.10;97.30;;;;;;5059686;28;20216;-80
2022/11/20 00:16:49;;;;;;;6.57;3.47;;;-4.20;97.30;;;;;;5080532;28;20210;-78
2022/11/20 00:19:14;;;;;;;2.67;2.47;;;-4.30;97.30;;;;;;5053423;28;20558;-79
2022/11/20 00:21:40;;;;;;;3.20;3.00;;;-4.30;97.30;;;;;;5052562;28;20683;-79
2022/11/20 00:24:09;;;;;;;3.70;3.50;;;-4.30;97.30;;;;;;5065976;28;20174;-76
2022/11/20 00:26:34;;;;;;;6.53;5.07;;;-4.30;97.30;;;;;;5053189;28;20218;-77
2022/11/20 00:29:01;;;;;;;6.63;3.90;;;-4.30;97.30;;;;;;5066003;28;20433;-80
2022/11/20 00:31:27;;;;;;;6.40;3.57;;;-4.20;97.30;;;;;;5053174;28;20297;-80
2022/11/20 00:33:53;;;;;;;4.63;2.37;;;-4.20;97.30;;;;;;5074078;28;20534;-80
2022/11/20 00:36:21;;;;;;;4.93;4.20;;;-4.20;97.30;;;;;;5079594;28;20441;-76
2022/11/20 00:38:50;;;;;;;2.83;2.67;;;-4.20;97.30;;;;;;5057265;28;20501;-79
2022/11/20 00:41:16;;;;;;;3.20;3.00;;;-4.20;97.30;;;;;;5060736;28;20429;-80
2022/11/20 00:43:42;;;;;;;4.03;3.83;;;-4.20;97.30;;;;;;5057998;28;20420;-78
2022/11/20 00:46:12;;;;;;;4.97;3.63;;;-4.20;97.30;;;;;;5060817;28;20201;-78
2022/11/20 00:48:37;;;;;;;2.20;2.03;;;-4.20;97.30;;;;;;5071889;28;20899;-80
2022/11/20 00:51:03;;;;;;;16.40;3.00;;;-4.20;97.30;;;;;;5059904;28;20443;-79
2022/11/20 00:53:31;;;;;;;2.67;2.47;;;-4.20;97.30;;;;;;5058513;28;20672;-79
2022/11/20 00:56:10;;;;;;;2.27;2.07;;;-4.20;97.30;;;;;;5070730;28;20447;-78
2022/11/20 00:58:37;;;;;;;5.17;4.40;;;-4.20;97.30;;;;;;5054798;28;20881;-80
2022/11/20 01:01:24;;;;;;;3.90;3.73;;;-4.30;97.30;;;;;;5072560;28;20452;-79
2022/11/20 01:03:51;;;;;;;2.70;2.50;;;-4.30;97.30;;;;;;5053676;28;20459;-76
2022/11/20 01:06:23;;;;;;;6.00;3.13;;;-4.30;97.30;;;;;;5070311;28;20456;-80
2022/11/20 01:08:51;;;;;;;13.33;3.67;;;-4.30;97.30;;;;;;5091847;28;20516;-78
2022/11/20 01:11:21;;;;;;;2.90;2.70;;;-4.30;97.30;;;;;;5072336;28;20420;-80
2022/11/20 01:13:48;;;;;;;3.50;2.97;;;-4.30;97.30;;;;;;5072988;28;20886;-76
2022/11/20 01:16:26;;;;;;;3.10;2.90;;;-4.40;97.30;;;;;;5052518;28;20963;-80
2022/11/20 01:18:54;;;;;;;3.23;3.07;;;-4.30;97.30;;;;;;5053219;28;20459;-80
2022/11/20 01:21:23;;;;;;;3.70;3.40;;;-4.30;97.30;;;;;;5071679;28;20465;-80
2022/11/20 01:23:50;;;;;;;3.20;3.00;;;-4.40;97.30;;;;;;5057973;28;20417;-76
2022/11/20 01:26:27;;;;;;;2.80;2.60;;;-4.40;97.30;;;;;;5071664;28;20432;-80
2022/11/20 01:28:54;;;;;;;5.57;4.37;;;-4.40;97.30;;;;;;5057928;28;20416;-79
2022/11/20 01:31:29;;;;;;;2.80;2.60;;;-4.40;97.30;;;;;;5072079;28;20416;-76
2022/11/20 01:33:59;;;;;;;3.70;3.50;;;-4.40;97.30;;;;;;5070788;28;20443;-79
2022/11/20 01:36:27;;;;;;;8.33;3.30;;;-4.40;97.30;;;;;;5077255;28;20452;-80
2022/11/20 01:38:54;;;;;;;3.80;3.60;;;-4.50;97.30;;;;;;5083848;28;20463;-78
2022/11/20 01:44:05;;;;;;;1.60;1.50;;;-4.50;97.30;;;;;;5059763;28;20450;-79
2022/11/20 01:46:37;;;;;;;2.80;2.60;;;-4.50;97.30;;;;;;5057466;28;20457;-79
2022/11/20 01:49:10;;;;;;;2.50;2.30;;;-4.50;97.30;;;;;;5090162;28;20423;-79
2022/11/20 01:51:42;;;;;;;3.67;3.50;;;-4.50;97.30;;;;;;5059521;28;20433;-80
2022/11/20 01:54:15;;;;;;;8.03;2.93;;;-4.50;97.30;;;;;;5067896;28;20502;-80
2022/11/20 01:56:43;;;;;;;12.17;4.63;;;-4.50;97.30;;;;;;5068660;28;20517;-80
2022/11/20 01:59:12;;;;;;;6.73;2.67;;;-4.50;97.30;;;;;;5071149;28;20461;-80
2022/11/20 02:01:38;;;;;;;4.60;4.20;;;-4.50;97.30;;;;;;5067359;28;20428;-80
2022/11/20 02:04:06;;;;;;;4.20;3.97;;;-4.50;97.30;;;;;;5054978;28;20458;-80
2022/11/20 02:06:40;;;;;;;4.63;3.57;;;-4.50;97.30;;;;;;5070869;28;20460;-80
2022/11/20 02:09:06;;;;;;;4.60;4.30;;;-4.50;97.30;;;;;;5088402;28;20430;-80
2022/11/20 02:11:31;;;;;;;12.10;4.70;;;-4.50;97.30;;;;;;5061550;28;20420;-79
2022/11/20 02:13:58;;;;;;;3.57;3.37;;;-4.60;97.30;;;;;;5054945;28;20194;-79
2022/11/20 02:16:33;;;;;;;5.17;3.20;;;-4.60;97.30;;;;;;5073277;28;20206;-80
2022/11/20 02:19:00;;;;;;;2.13;1.97;;;-4.60;97.30;;;;;;5060691;28;20466;-81
2022/11/20 02:21:32;;;;;;;3.40;3.20;;;-4.70;97.30;;;;;;5073241;28;20420;-78
2022/11/20 02:24:15;;;;;;;3.40;3.20;;;-4.70;97.30;;;;;;5054831;28;20431;-79
2022/11/20 02:26:55;;;;;;;3.60;3.40;;;-4.70;97.30;;;;;;5064626;28;20812;-80
2022/11/20 02:29:32;;;;;;;3.53;3.33;;;-4.70;97.30;;;;;;5061356;28;20516;-81
2022/11/20 02:32:00;;;;;;;6.00;5.70;;;-4.70;97.30;;;;;;5060469;28;20974;-80
2022/11/20 02:34:25;;;;;;;5.33;2.80;;;-4.70;97.30;;;;;;5055774;28;20459;-78
2022/11/20 02:36:52;;;;;;;4.27;3.73;;;-4.70;97.30;;;;;;5055240;28;20488;-79
2022/11/20 02:39:19;;;;;;;3.33;3.13;;;-4.70;97.30;;;;;;5073444;28;20624;-80
2022/11/20 02:41:45;;;;;;;2.83;2.53;;;-4.70;97.30;;;;;;5054908;28;20425;-80
2022/11/20 02:44:10;;;;;;;5.93;3.47;;;-4.70;97.30;;;;;;5072701;28;20496;-80
2022/11/20 02:46:36;;;;;;;2.80;2.50;;;-4.70;97.30;;;;;;5086531;28;20675;-81
2022/11/20 02:49:05;;;;;;;4.23;3.97;;;-4.70;97.30;;;;;;5084626;28;20240;-80
2022/11/20 02:51:32;;;;;;;4.03;3.80;;;-4.80;97.30;;;;;;5054409;28;20235;-81
2022/11/20 02:53:58;;;;;;;4.60;2.90;;;-4.80;97.30;;;;;;5062279;28;20433;-81
2022/11/20 02:56:23;;;;;;;6.47;3.47;;;-4.80;97.30;;;;;;5034234;28;1063861;-80
2022/11/20 02:58:49;;;;;;;7.50;3.90;;;-4.80;97.30;;;;;;5066388;28;20210;-80
2022/11/20 03:01:14;;;;;;;3.80;3.60;;;-4.80;97.30;;;;;;5067274;28;20186;-80
2022/11/20 03:03:40;;;;;;;3.73;3.50;;;-4.90;97.30;;;;;;5055856;28;20174;-80
2022/11/20 03:06:06;;;;;;;4.47;4.17;;;-4.90;97.30;;;;;;5070435;28;20294;-81
2022/11/20 03:08:32;;;;;;;2.33;2.13;;;-4.90;97.30;;;;;;5093979;28;20179;-80
2022/11/20 03:11:02;;;;;;;8.37;2.53;;;-4.80;97.30;;;;;;5060629;28;20520;-81
2022/11/20 03:13:28;;;;;;;2.63;2.43;;;-4.90;97.30;;;;;;5073475;28;20163;-80
2022/11/20 03:15:53;;;;;;;2.57;2.37;;;-4.80;97.30;;;;;;5070522;28;20443;-80
2022/11/20 03:18:19;;;;;;;2.80;2.60;;;-4.80;97.30;;;;;;5081958;28;20261;-81
2022/11/20 03:20:44;;;;;;;2.53;2.33;;;-4.80;97.30;;;;;;5059770;28;20399;-80
2022/11/20 03:23:10;;;;;;;6.00;4.27;;;-4.80;97.30;;;;;;5063873;28;20226;-80
2022/11/20 03:25:35;;;;;;;2.83;2.63;;;-4.80;97.30;;;;;;5060270;28;20182;-81
2022/11/20 03:28:01;;;;;;;3.53;1.83;;;-4.90;97.30;;;;;;5055412;28;20255;-80
2022/11/20 03:30:26;;;;;;;3.20;2.73;;;-4.90;97.30;;;;;;5068604;28;20185;-80
2022/11/20 03:32:53;;;;;;;2.43;2.23;;;-5.00;97.30;;;;;;5081615;28;20185;-81
2022/11/20 03:35:19;;;;;;;3.07;2.87;;;-5.00;97.30;;;;;;5059597;28;20186;-80
2022/11/20 03:37:45;;;;;;;3.87;3.23;;;-5.10;97.30;;;;;;5072997;28;20447;-80
2022/11/20 03:40:11;;;;;;;1.87;1.77;;;-5.10;97.30;;;;;;5084987;28;20242;-80
2022/11/20 03:42:46;;;;;;;7.73;3.77;;;-5.10;97.30;;;;;;5081015;28;20926;-80
2022/11/20 03:45:16;;;;;;;3.27;3.07;;;-5.10;97.30;;;;;;5061103;28;20415;-80
2022/11/20 03:47:42;;;;;;;3.53;3.33;;;-5.20;97.30;;;;;;5091302;28;20464;-75
2022/11/20 03:50:09;;;;;;;2.23;2.07;;;-5.20;97.30;;;;;;5056503;28;20860;-78
2022/11/20 03:52:35;;;;;;;2.27;2.10;;;-5.20;97.30;;;;;;5054193;28;20807;-80
2022/11/20 03:55:00;;;;;;;4.50;4.20;;;-5.20;97.30;;;;;;5056919;28;20428;-80
2022/11/20 03:57:26;;;;;;;2.43;1.83;;;-5.20;97.30;;;;;;5054657;28;20479;-80
2022/11/20 03:59:52;;;;;;;4.00;3.70;;;-5.20;97.30;;;;;;5088849;28;20230;-81
2022/11/20 04:02:17;;;;;;;3.10;2.90;;;-5.20;97.30;;;;;;5082393;28;20178;-80
2022/11/20 04:04:43;;;;;;;5.87;4.73;;;-5.20;97.30;;;;;;5054084;28;20270;-80
2022/11/20 04:07:08;;;;;;;4.10;3.57;;;-5.20;97.30;;;;;;5049783;28;20293;-76
2022/11/20 04:09:34;;;;;;;4.10;3.43;;;-5.20;97.30;;;;;;5059792;28;20213;-79
2022/11/20 04:11:59;;;;;;;3.10;2.90;;;-5.10;97.30;;;;;;5052570;28;20186;-76
2022/11/20 04:14:25;;;;;;;7.80;4.50;;;-5.10;97.30;;;;;;5053829;28;20190;-76
2022/11/20 04:16:50;;;;;;;3.73;2.20;;;-5.00;97.30;;;;;;5060111;28;20209;-76
2022/11/20 04:19:16;;;;;;;3.27;2.30;;;-5.00;97.30;;;;;;5059339;28;20457;-79
2022/11/20 04:21:43;;;;;;;3.10;2.90;;;-5.00;97.30;;;;;;5060344;28;20170;-76
2022/11/20 04:24:10;;;;;;;3.10;2.43;;;-5.00;97.30;;;;;;5056985;28;20230;-79
2022/11/20 04:26:36;;;;;;;2.50;2.30;;;-4.90;97.30;;;;;;5081358;28;20436;-78
2022/11/20 04:29:03;;;;;;;3.53;3.33;;;-4.90;97.30;;;;;;5066343;28;20406;-79
2022/11/20 04:31:31;;;;;;;3.50;3.30;;;-5.00;97.30;;;;;;5080786;28;20409;-79
2022/11/20 04:34:01;;;;;;;4.93;3.70;;;-5.00;97.30;;;;;;5090444;28;20513;-76
2022/11/20 04:36:29;;;;;;;3.67;3.53;;;-5.00;97.30;;;;;;5061990;28;20446;-79
2022/11/20 04:39:01;;;;;;;2.20;2.00;;;-5.00;97.30;;;;;;5056915;28;20452;-79
2022/11/20 04:41:32;;;;;;;6.00;2.60;;;-5.00;97.30;;;;;;5072179;28;20408;-81
2022/11/20 04:44:02;;;;;;;3.83;3.63;;;-5.00;97.30;;;;;;5060146;28;20499;-77
2022/11/20 04:46:29;;;;;;;2.43;2.23;;;-5.00;97.30;;;;;;5058619;28;20443;-80
2022/11/20 04:48:55;;;;;;;2.97;2.70;;;-5.00;97.30;;;;;;5090436;28;20423;-76
2022/11/20 04:51:21;;;;;;;8.20;3.53;;;-5.00;97.30;;;;;;5052811;28;20412;-75
2022/11/20 04:53:47;;;;;;;5.70;2.13;;;-5.00;97.30;;;;;;5072056;28;20430;-76
2022/11/20 04:56:13;;;;;;;3.33;3.13;;;-5.10;97.30;;;;;;5052451;28;20428;-79
2022/11/20 04:58:39;;;;;;;2.40;2.23;;;-5.10;97.30;;;;;;5080098;22;20296;-80
2022/11/20 05:01:20;;;;;;;2.73;2.53;;;-5.20;97.30;;;;;;5077389;28;20425;-81
2022/11/20 05:03:46;;;;;;;4.23;3.97;;;-5.30;97.30;;;;;;5072652;28;20416;-82
2022/11/20 05:06:14;;;;;;;4.20;3.70;;;-5.30;97.30;;;;;;5055887;28;20954;-79
2022/11/20 05:08:40;;;;;;;5.17;2.30;;;-5.30;97.30;;;;;;5054882;28;20580;-80
2022/11/20 05:11:09;;;;;;;2.90;2.70;;;-5.30;97.30;;;;;;5049744;28;20445;-80
2022/11/20 05:13:35;;;;;;;8.53;4.60;;;-5.30;97.30;;;;;;5019833;28;20452;-81
2022/11/20 05:16:09;;;;;;;2.00;1.90;;;-5.30;97.30;;;;;;5040981;28;20492;-78
2022/11/20 05:18:36;;;;;;;4.70;4.20;;;-5.30;97.30;;;;;;5036162;28;20209;-80
2022/11/20 05:21:02;;;;;;;6.57;3.07;;;-5.30;97.30;;;;;;5037942;28;20465;-79
2022/11/20 05:23:29;;;;;;;23.03;3.30;;;-5.30;97.30;;;;;;5030081;28;20475;-80
2022/11/20 05:25:56;;;;;;;7.30;3.50;;;-5.30;97.30;;;;;;5030235;28;20430;-80
2022/11/20 05:28:22;;;;;;;14.43;3.53;;;-5.20;97.30;;;;;;5044200;28;20446;-81
2022/11/20 05:30:48;;;;;;;3.30;3.13;;;-4.40;97.30;;;;;;5023087;28;20480;-79
2022/11/20 05:33:14;;;;;;;7.00;5.10;;;-3.90;97.30;;;;;;5024132;28;20428;-78
2022/11/20 05:35:40;;;;;;;4.33;4.03;;;-3.70;97.30;;;;;;5030440;28;20260;-80
2022/11/20 05:38:05;;;;;;;6.80;6.07;;;-3.80;97.30;;;;;;5049723;28;20196;-80
2022/11/20 05:40:31;;;;;;;6.27;5.93;;;-3.90;97.30;;;;;;5046133;28;20630;-80
2022/11/20 05:42:56;;;;;;;6.70;4.63;;;-4.00;97.30;;;;;;5031847;28;20529;-79
2022/11/20 05:45:22;;;;;;;8.07;4.50;;;-3.90;97.30;;;;;;5043196;28;20274;-81
2022/11/20 05:47:47;;;;;;;12.67;3.23;;;-3.90;97.30;;;;;;5040299;28;20241;-81
2022/11/20 05:50:14;;;;;;;4.37;4.07;;;-3.80;97.30;;;;;;5050014;28;20172;-81
2022/11/20 05:52:40;;;;;;;2.87;2.67;;;-3.70;97.30;;;;;;5039337;28;20185;-80
2022/11/20 05:55:06;;;;;;;7.50;3.60;;;-3.80;97.30;;;;;;5029502;28;20425;-81
2022/11/20 05:57:31;;;;;;;5.23;3.37;;;-3.90;97.30;;;;;;5030084;28;20953;-81
2022/11/20 05:59:57;;;;;;;8.80;3.67;;;-3.80;97.30;;;;;;5032815;28;20485;-80
2022/11/20 06:02:22;;;;;;;13.17;8.67;;;-3.70;97.30;;;;;;5006187;28;20229;-81
2022/11/20 06:04:48;;;;;;;67.20;4.30;;;-3.80;97.30;;;;;;5039859;28;20565;-81
2022/11/20 06:07:14;;;;;;;4.17;3.93;;;-3.90;97.30;;;;;;5045792;28;20360;-80
2022/11/20 06:09:39;;;;;;;5.43;3.87;;;-3.90;97.30;;;;;;5046341;28;20208;-80
2022/11/20 06:12:06;;;;;;;4.70;4.40;;;-4.00;97.30;;;;;;5026294;28;20522;-80
2022/11/20 06:14:32;;;;;;;4.43;4.13;;;-4.20;97.30;;;;;;5019760;28;20230;-82
2022/11/20 06:16:57;;;;;;;3.87;3.67;;;-4.20;97.30;;;;;;5017492;28;20426;-81
2022/11/20 06:19:24;;;;;;;2.37;2.17;;;-4.00;97.30;;;;;;5042587;28;20686;-83
2022/11/20 06:21:50;;;;;;;7.93;4.83;;;-3.80;97.30;;;;;;5043002;28;20186;-81
2022/11/20 06:24:16;;;;;;;5.30;4.17;;;-3.80;97.30;;;;;;5038678;28;20415;-80
2022/11/20 06:26:42;;;;;;;7.73;5.10;;;-3.70;97.30;;;;;;5016049;28;20224;-80
2022/11/20 06:29:08;;;;;;;5.80;4.40;;;-3.90;97.30;;;;;;5024234;28;20817;-81
2022/11/20 06:31:34;;;;;;;3.30;3.10;;;-4.00;97.30;;;;;;5032284;28;20186;-80
2022/11/20 06:34:00;;;;;;;5.93;4.63;;;-4.20;97.30;;;;;;5044196;28;20410;-81
2022/11/20 06:36:26;;;;;;;18.23;5.00;;;-4.40;97.30;;;;;;5052485;28;20440;-81
2022/11/20 06:38:52;;;;;;;7.57;4.03;;;-4.40;97.30;;;;;;5038821;28;20993;-81
2022/11/20 06:41:20;;;;;;;3.70;3.50;;;-4.40;97.30;;;;;;5017779;28;20432;-80
2022/11/20 06:43:46;;;;;;;2.83;2.40;;;-4.50;97.30;;;;;;5021508;28;20197;-81
2022/11/20 06:46:13;;;;;;;14.20;4.43;;;-4.60;97.30;;;;;;5021581;28;20503;-81
2022/11/20 06:48:39;;;;;;;3.10;2.90;;;-4.60;97.30;;;;;;5016199;28;20452;-80
2022/11/20 06:51:06;;;;;;;6.00;3.80;;;-4.60;97.30;;;;;;5043691;28;20417;-82
2022/11/20 06:53:32;;;;;;;3.70;3.40;;;-4.70;97.30;;;;;;5027764;28;20433;-81
2022/11/20 06:55:58;;;;;;;13.53;3.73;;;-4.70;97.30;;;;;;5024190;28;20817;-81
2022/11/20 06:58:27;;;;;;;2.30;2.10;;;-4.80;97.30;;;;;;5013101;28;20470;-80
2022/11/20 07:00:53;;;;;;;5.60;3.63;;;-4.80;97.30;;;;;;5008879;28;20551;-80
2022/11/20 07:03:19;;;;;;;3.00;2.80;;;-4.90;97.30;;;;;;5031759;28;20423;-80
2022/11/20 07:05:45;;;;;;;6.33;4.20;;;-5.00;97.30;;;;;;5032272;28;20282;-80
2022/11/20 07:08:12;;;;;;;3.33;3.10;;;-5.00;97.30;;;;;;5046533;28;20678;-80
2022/11/20 07:10:37;;;;;;;2.87;2.67;;;-5.10;97.30;;;;;;5022395;28;20432;-80
2022/11/20 07:13:03;;;;;;;5.37;4.90;;;-5.10;97.30;;;;;;5039002;28;20434;-79
2022/11/20 07:15:29;;;;;;;5.50;3.67;;;-5.10;97.30;;;;;;5034788;28;20195;-80
2022/11/20 07:17:54;;;;;;;2.40;2.20;;;-5.10;97.30;;;;;;5051499;28;20199;-80
2022/11/20 07:20:23;;;;;;;6.53;3.47;;;-5.10;97.30;;;;;;5042350;28;20207;-80
2022/11/20 07:22:57;;;;;;;4.50;2.70;;;-5.10;97.30;;;;;;5029347;28;20187;-80
2022/11/20 07:25:23;;;;;;;6.63;3.07;;;-5.00;97.30;;;;;;5021498;28;20431;-80
2022/11/20 07:27:49;;;;;;;3.97;3.77;;;-5.00;97.30;;;;;;5029980;28;20453;-80
2022/11/20 07:30:15;;;;;;;5.40;5.10;;;-4.90;97.30;;;;;;5020887;28;20525;-80
2022/11/20 07:32:55;;;;;;;1.80;1.70;;;-4.90;97.30;;;;;;5047161;28;20205;-80
2022/11/20 07:35:21;;;;;;;5.00;4.30;;;-4.80;97.30;;;;;;5023016;28;20443;-80
2022/11/20 07:37:48;;;;;;;4.70;4.40;;;-4.70;97.30;;;;;;5051284;28;20441;-81
2022/11/20 07:40:14;;;;;;;2.50;2.20;;;-4.60;97.30;;;;;;5029529;28;20885;-81
2022/11/20 07:42:50;;;;;;;4.20;3.00;;;-4.50;97.30;;;;;;5031711;28;20495;-78
2022/11/20 07:45:17;;;;;;;5.43;4.00;;;-4.50;97.30;;;;;;5015152;28;20939;-80
2022/11/20 07:47:53;;;;;;;4.93;3.60;;;-4.40;97.30;;;;;;5025222;28;20425;-80
2022/11/20 07:50:19;;;;;;;5.77;2.70;;;-4.30;97.30;;;;;;5033638;28;20856;-80
2022/11/20 07:52:45;;;;;;;7.70;4.63;;;-4.20;97.30;;;;;;5005032;28;20440;-80
2022/11/20 07:55:11;;;;;;;8.50;5.33;;;-4.20;97.30;;;;;;5022978;28;20522;-81
2022/11/20 07:57:37;;;;;;;4.10;3.87;;;-4.10;97.30;;;;;;5029958;28;20184;-81
2022/11/20 08:00:08;;;;;;;4.37;4.10;;;-4.00;97.30;;;;;;5022313;28;21030;-80
2022/11/20 08:02:40;;;;;;;7.23;5.27;;;-4.00;97.30;;;;;;5008413;28;20187;-80
2022/11/20 08:05:06;;;;;;;2.00;1.90;;;-3.90;97.30;;;;;;5048979;28;20445;-80
2022/11/20 08:07:42;;;;;;;3.20;3.00;;;-3.90;97.30;;;;;;5051772;28;20410;-80
2022/11/20 08:10:10;;;;;;;4.57;4.27;;;-3.80;97.30;;;;;;5014651;28;20498;-81
2022/11/20 08:15:20;;;;;;;2.77;2.57;;;-3.70;97.30;;;;;;5014268;28;20426;-80
2022/11/20 08:17:46;;;;;;;4.10;3.33;;;-3.60;97.30;;;;;;5041810;28;20513;-81
2022/11/20 08:20:12;;;;;;;3.67;3.47;;;-3.50;97.30;;;;;;5029346;28;20250;-81
2022/11/20 08:22:37;;;;;;;2.23;2.03;;;-3.50;97.30;;;;;;5023352;28;20211;-80
2022/11/20 08:25:03;;;;;;;6.47;4.57;;;-3.40;97.30;;;;;;5025405;28;20177;-80
2022/11/20 08:27:29;;;;;;;1.80;1.70;;;-3.30;97.30;;;;;;5035482;28;20673;-80
2022/11/20 08:29:54;;;;;;;3.53;2.90;;;-3.30;97.30;;;;;;5028260;28;20425;-80
2022/11/20 08:32:20;;;;;;;4.53;3.63;;;-3.20;97.30;;;;;;5046420;28;20203;-81
2022/11/20 08:34:46;;;;;;;5.93;4.07;;;-3.20;97.30;;;;;;5024527;28;20203;-81
2022/11/20 08:37:11;;;;;;;3.90;3.67;;;-3.10;97.30;;;;;;5032959;28;20665;-80
2022/11/20 08:39:37;;;;;;;8.23;4.50;;;-3.00;97.30;;;;;;5048174;28;20506;-80
2022/11/20 08:42:07;;;;;;;8.90;6.03;;;-2.90;97.30;;;;;;5029583;28;20200;-80
2022/11/20 08:44:33;;;;;;;3.67;3.10;;;-2.80;97.30;;;;;;5030913;28;20308;-81
2022/11/20 08:46:59;;;;;;;4.13;3.17;;;-2.80;97.30;;;;;;5022835;28;20466;-81
2022/11/20 08:49:25;;;;;;;5.63;5.33;;;-2.70;97.30;;;;;;5032462;28;20204;-81
2022/11/20 08:51:53;;;;;;;5.93;3.50;;;-2.80;97.30;;;;;;5036475;28;20424;-81
2022/11/20 08:54:21;;;;;;;5.03;3.20;;;-2.70;97.30;;;;;;5036744;28;20185;-80
2022/11/20 08:56:47;;;;;;;3.70;3.00;;;-2.70;97.30;;;;;;5035505;28;20420;-80
2022/11/20 08:59:12;;;;;;;15.10;4.60;;;-2.70;97.30;;;;;;5039644;28;20563;-81
2022/11/20 09:01:38;;;;;;;3.50;3.30;;;-2.60;97.30;;;;;;5040782;28;20191;-82
2022/11/20 09:04:04;;;;;;;4.00;2.37;;;-2.60;97.30;;;;;;5039751;28;20179;-81
2022/11/20 09:06:30;;;;;;;3.93;2.50;;;-2.60;97.30;;;;;;5042135;28;20434;-80
2022/11/20 09:08:56;;;;;;;2.53;2.37;;;-2.50;97.30;;;;;;5041230;28;20627;-80
2022/11/20 09:11:22;;;;;;;3.37;2.23;;;-2.40;97.30;;;;;;5032350;28;20555;-81
2022/11/20 09:13:48;;;;;;;9.77;4.30;;;-2.30;97.30;;;;;;5046304;28;20422;-81
2022/11/20 09:16:13;;;;;;;5.80;3.47;;;-2.30;97.30;;;;;;5035039;28;20168;-81
2022/11/20 09:18:39;;;;;;;4.07;3.60;;;-2.20;97.30;;;;;;5035718;28;20196;-80
2022/11/20 09:21:08;;;;;;;3.13;2.63;;;-2.20;97.30;;;;;;5035021;28;20605;-81
2022/11/20 09:23:35;;;;;;;3.73;3.53;;;-2.20;97.30;;;;;;5036291;28;20183;-81
2022/11/20 09:26:10;;;;;;;3.13;2.60;;;-2.10;97.30;;;;;;5025690;28;20414;-81
2022/11/20 09:28:36;;;;;;;3.20;3.00;;;-2.10;97.30;;;;;;5054310;28;20433;-81
2022/11/20 09:31:07;;;;;;;4.27;3.67;;;-2.00;97.30;;;;;;5044009;28;20505;-83
2022/11/20 09:33:32;;;;;;;4.23;2.90;;;-1.90;97.30;;;;;;5056481;28;20719;-84
2022/11/20 09:35:58;;;;;;;4.13;3.80;;;-1.90;97.30;;;;;;5058268;28;20414;-82
2022/11/20 09:38:23;;;;;;;7.17;2.80;;;-1.90;97.30;;;;;;5055962;28;20564;-81
2022/11/20 09:41:02;;;;;;;7.80;4.00;;;-1.90;97.30;;;;;;5037972;28;20292;-82
2022/11/20 09:43:41;;;;;;;4.97;3.40;;;-1.80;97.30;;;;;;5046903;28;20545;-81
2022/11/20 09:46:45;;;;;;;2.47;2.27;;;-1.70;97.30;;;;;;5041963;28;20421;-81
2022/11/20 09:49:37;;;;;;;3.70;3.50;;;-1.60;97.30;;;;;;4974541;28;20920;-81
2022/11/20 09:52:36;;;;;;;4.70;4.03;;;-1.60;97.30;;;;;;4958360;28;20425;-82
2022/11/20 09:55:06;;;;;;;16.07;7.60;;;-1.60;97.30;;;;;;5009201;28;20432;-81
2022/11/20 09:57:42;;;;;;;8.73;5.30;;;-1.60;97.30;;;;;;5048234;28;20787;-81
2022/11/20 10:00:14;;;;;;;7.57;5.57;;;-1.50;97.30;;;;;;5047575;28;20458;-81
2022/11/20 10:02:53;;;;;;;12.83;6.70;;;-1.40;97.30;;;;;;5008654;28;20807;-82
2022/11/20 10:05:24;;;;;;;5.87;4.13;;;-1.30;97.30;;;;;;5031494;28;20432;-82
2022/11/20 10:08:05;;;;;;;7.60;6.60;;;-1.10;97.30;;;;;;5030353;28;20431;-82
2022/11/20 10:10:41;;;;;;;3.93;3.23;;;-1.00;97.30;;;;;;5045505;28;20961;-81
2022/11/20 10:13:34;;;;;;;3.00;2.80;;;-0.90;97.30;;;;;;5042491;28;20422;-80
2022/11/20 10:16:17;;;;;;;19.67;6.17;;;-1.00;97.30;;;;;;5028787;28;20421;-79
2022/11/20 10:18:57;;;;;;;7.60;4.77;;;-1.00;97.30;;;;;;5052846;28;20506;-82
2022/11/20 10:21:54;;;;;;;4.43;3.63;;;-1.00;97.30;;;;;;5061389;28;20796;-81
2022/11/20 10:24:34;;;;;;;5.13;4.83;;;-0.90;97.30;;;;;;5037098;28;20452;-81
2022/11/20 10:27:31;;;;;;;4.17;3.93;;;-0.90;97.30;;;;;;5043682;28;20421;-80
2022/11/20 10:30:08;;;;;;;2.83;2.63;;;-0.80;97.30;;;;;;5045802;28;20409;-83
2022/11/20 10:32:39;;;;;;;2.70;2.50;;;-0.70;97.30;;;;;;5054744;28;20432;-83
2022/11/20 10:35:44;;;;;;;13.13;5.93;;;-0.50;97.30;;;;;;5046182;28;20935;-83
2022/11/20 10:38:20;;;;;;;10.00;4.30;;;-0.50;97.30;;;;;;5039465;28;20669;-82
2022/11/20 10:40:50;;;;;;;8.80;3.77;;;-0.50;97.30;;;;;;5056734;28;20463;-81
2022/11/20 10:43:42;;;;;;;4.50;3.63;;;-0.50;97.30;;;;;;5052796;28;20457;-82
2022/11/20 10:46:15;;;;;;;6.83;3.27;;;-0.50;97.30;;;;;;5070181;28;20456;-79
2022/11/20 10:48:44;;;;;;;3.27;3.07;;;-0.30;97.30;;;;;;5051866;28;20816;-81
2022/11/20 10:51:22;;;;;;;2.23;2.03;;;-0.20;97.30;;;;;;5047054;28;20413;-79
2022/11/20 10:54:13;;;;;;;3.50;2.80;;;-0.10;97.30;;;;;;5063644;28;20420;-81
2022/11/20 10:56:47;;;;;;;3.43;3.20;;;0.00;97.30;;;;;;5045921;28;20917;-82
2022/11/20 10:59:43;;;;;;;3.00;2.80;;;0.00;97.30;;;;;;5051997;28;20469;-81
2022/11/20 11:02:20;;;;;;;3.23;3.00;;;0.10;97.30;;;;;;5054489;28;20412;-83
2022/11/20 11:04:52;;;;;;;9.73;5.63;;;0.20;97.30;;;;;;5068631;28;20416;-82
2022/11/20 11:07:33;;;;;;;6.40;2.90;;;0.30;97.30;;;;;;5050228;28;20774;-81
2022/11/20 11:09:59;;;;;;;6.83;4.53;;;0.40;97.30;;;;;;5057778;28;20413;-79
2022/11/20 11:12:27;;;;;;;9.27;3.73;;;0.50;97.30;;;;;;5057158;28;20988;-81
2022/11/20 11:14:55;;;;;;;5.00;4.03;;;0.50;97.30;;;;;;5056744;28;20206;-79
2022/11/20 11:17:27;;;;;;;4.50;4.00;;;0.60;97.30;;;;;;5048036;28;20424;-82
2022/11/20 11:20:00;;;;;;;3.03;2.83;;;0.60;97.30;;;;;;5062851;28;20465;-78
2022/11/20 11:22:29;;;;;;;6.27;4.07;;;0.70;97.30;;;;;;5058149;28;20440;-80
2022/11/20 11:24:55;;;;;;;7.43;4.40;;;0.70;97.30;;;;;;5075057;28;20445;-79
2022/11/20 11:27:20;;;;;;;5.67;4.17;;;0.70;97.30;;;;;;5047186;28;20417;-80
2022/11/20 11:29:46;;;;;;;4.77;3.17;;;0.60;97.30;;;;;;5056192;28;20206;-81
2022/11/20 11:32:14;;;;;;;2.90;2.70;;;0.40;97.30;;;;;;5055804;28;20193;-82
2022/11/20 11:34:39;;;;;;;4.03;3.83;;;0.10;97.30;;;;;;5057199;28;20482;-79
2022/11/20 11:37:15;;;;;;;2.17;2.00;;;0.10;97.30;;;;;;5069729;28;20495;-78
2022/11/20 11:39:42;;;;;;;3.73;2.90;;;0.20;97.30;;;;;;5025049;28;20227;-82
2022/11/20 11:42:15;;;;;;;4.40;3.73;;;0.30;97.30;;;;;;5064337;28;20520;-85
2022/11/20 11:47:45;;;;;;;2.90;1.53;;;0.70;97.30;;;;;;5075591;28;20820;-84
2022/11/20 11:50:17;;;;;;;9.53;6.33;;;0.90;97.30;;;;;;5056534;28;20453;-84
2022/11/20 11:53:01;;;;;;;3.80;3.50;;;1.20;97.30;;;;;;5046856;28;20489;-83
2022/11/20 11:55:32;;;;;;;8.70;5.53;;;1.40;97.30;;;;;;5042052;28;20423;-82
2022/11/20 11:58:34;;;;;;;4.77;2.00;;;1.60;97.30;;;;;;5055203;28;20437;-81
2022/11/20 12:01:24;;;;;;;1.47;1.40;;;1.70;97.30;;;;;;5042135;28;20521;-81
2022/11/20 12:04:19;;;;;;;1.30;1.20;;;1.60;97.30;;;;;;5054231;28;20436;-82
2022/11/20 12:06:49;;;;;;;4.20;3.00;;;1.70;97.30;;;;;;5074278;28;20409;-80
2022/11/20 12:09:18;;;;;;;1.53;1.43;;;1.70;97.30;;;;;;5066392;28;20445;-85
2022/11/20 12:12:08;;;;;;;3.57;2.73;;;1.70;97.30;;;;;;5040747;28;20422;-82
2022/11/20 12:14:40;;;;;;;4.07;3.83;;;1.70;97.30;;;;;;5045553;28;20421;-83
2022/11/20 12:17:10;;;;;;;2.40;2.20;;;1.90;97.30;;;;;;5057948;28;20458;-83
2022/11/20 12:19:36;;;;;;;5.17;2.27;;;2.10;97.30;;;;;;5032858;28;20496;-83
2022/11/20 12:22:16;;;;;;;3.37;2.13;;;2.20;97.30;;;;;;5057809;28;20430;-83
2022/11/20 12:25:07;;;;;;;6.03;2.30;;;2.40;97.30;;;;;;5059412;28;20278;-82
2022/11/20 12:27:51;;;;;;;1.77;1.67;;;2.30;97.20;;;;;;5059658;28;20428;-83
2022/11/20 12:30:19;;;;;;;1.50;1.40;;;2.40;97.30;;;;;;5057365;28;20594;-84
2022/11/20 12:32:56;;;;;;;4.70;3.47;;;2.60;97.10;;;;;;5048263;28;20417;-82
2022/11/20 12:35:52;;;;;;;2.53;2.10;;;2.80;96.70;;;;;;5045194;28;20928;-84
2022/11/20 12:38:39;;;;;;;2.00;1.90;;;2.90;96.10;;;;;;5062449;28;20442;-83
2022/11/20 12:47:56;;;;;;;3.60;2.80;;;3.20;95.40;;;;;;5046300;28;20413;-83
2022/11/20 12:50:49;;;;;;;11.03;4.20;;;3.10;94.40;;;;;;5057413;28;20751;-83
2022/11/20 12:53:40;;;;;;;2.50;2.30;;;3.10;94.30;;;;;;5057701;28;20410;-83
2022/11/20 12:56:40;;;;;;;2.47;2.27;;;3.10;94.90;;;;;;5058261;28;20470;-83
2022/11/20 12:59:21;;;;;;;3.43;2.30;;;3.30;94.70;;;;;;5030023;28;20470;-82
2022/11/20 13:01:51;;;;;;;11.47;2.60;;;3.50;94.50;;;;;;5045687;28;20414;-83
2022/11/20 13:04:30;;;;;;;5.07;3.13;;;3.70;93.80;;;;;;5058256;28;20486;-80
2022/11/20 13:06:56;;;;;;;6.60;3.03;;;3.90;93.20;;;;;;5027751;28;20428;-83
2022/11/20 13:09:23;;;;;;;6.33;3.00;;;4.10;93.20;;;;;;5057546;28;20834;-83
2022/11/20 13:12:10;;;;;;;2.30;2.10;;;4.30;92.50;;;;;;5049019;28;20422;-84
2022/11/20 13:14:51;;;;;;;3.30;2.70;;;4.40;91.40;;;;;;5051300;28;20429;-81
2022/11/20 13:17:25;;;;;;;10.50;4.17;;;4.60;90.90;;;;;;5025080;28;20414;-84
2022/11/20 13:19:58;;;;;;;4.03;2.50;;;4.60;90.20;;;;;;5038435;28;21023;-83